Envoy E145 at Toronto on Apr 20th 2017, runway incursion

Last Update: April 26, 2017 / 18:49:02 GMT/Zulu time

Bookmark this article
Incident Facts

Date of incident
Apr 20, 2017

Classification
Incident

Airline
Envoy Air

Flight number
MQ-3725

Destination
Toronto, Canada

Aircraft Registration
N698CB

Aircraft Type
Embraer ERJ-145

ICAO Type Designator
E145

An Envoy Embraer ERJ-145, registration N698CB performing flight MQ-3725 from New York JFK,NY (USA) to Toronto,ON (Canada), had landed on Toronto's runway 06R and was instructed to hold short of runway 06L on taxiway D3, which was correctly read back by the crew. The aircraft however crossed the hold short line, ATC instructed the aircraft "STOP!"

A United Boeing 737-900, registration N63890 performing flight UA-211 from Toronto,ON (Canada) to Chicago O'Hare,IL (USA), had been cleared for takeoff from runway 06L and was accelerating for takeoff.

The Canadian TSB reported that the Embraer eventually came to a stop short of but near the runway edge. The Boeing rotated about abeam taxiway D3.

The Canadian TSB rated the occurrence as risk of collision, however, did not open an investigation.



Metars:
CYYZ 201640Z 09014KT 15SM OVC011 05/04 A3009 RMK SC8 SLP196=
CYYZ 201600Z 09011G21KT 6SM -SHRA BR SCT008 OVC013 05/04 A3012 RMK SF3SC5 CVCTV CLD EMBD SLP204=
CYYZ 201537Z CCA 10012G17KT 6SM -SHRA BR FEW008 OVC013 05/04 A3012 RMK SF2SC6 CVCTV CLD EMBD PRESFR SLP205=
CYYZ 201517Z 09009G15KT 4SM SHRA BR OVC013 05/04 A3014 RMK SC8 CVCTV CLD EMBD SLP211=
CYYZ 201500Z 07010KT 060V130 5SM SHRA BR FEW008 OVC013 05/04 A3014 RMK SF2SC6 CVCTV CLD EMBD SLP212=
CYYZ 201454Z 10009KT 070V140 5SM SHRA SCT008 OVC013 05/04 A3016 RMK SF3SC5 CVCTV CLD EMBD PRESRR SLP219=
CYYZ 201432Z 08006G19KT 10SM -SHRA FEW009 OVC014 05/04 A3016 RMK SF2SC6 CVCTV CLD EMBD PRESRR SLP220=
CYYZ 201414Z 07013G19KT 8SM SHRA FEW009 OVC014 06/04 A3017 RMK SF2SC6 CVCTV CLD EMBD PRESFR SLP221=
CYYZ 201400Z 09008KT 12SM -RA OVC014 06/03 A3022 RMK SC8 PRESRR SLP240=
CYYZ 201341Z 08010G18KT 15SM -RA OVC014 06/03 A3017 RMK SC8 PRESRR SLP220=
CYYZ 201300Z 10014G20KT 15SM OVC015 07/03 A3013 RMK SC8 SLP209=
CYYZ 201200Z 09008KT 15SM OVC016 07/04 A3015 RMK SC8 PRESRR SLP215=
Aircraft Registration Data
Registration mark
N698CB
Country of Registration
United States
Date of Registration
PjlnlplhiAipnphc Subscribe to unlock
Manufacturer
EMBRAER
Aircraft Model / Type
EMB-145LR
Number of Seats
ICAO Aircraft Type
E145
Year of Manufacture
Serial Number
Aircraft Address / Mode S Code (HEX)
Engine Count
Engine Manufacturer
Engine Model
Engine Type
Pounds of Thrust
Main Owner
Bpjqmclpqbccqjch beqmpcAkcqnn dnfigk bnpicd nbphlb d cmlAlnbccAneimng pifnlkemA Subscribe to unlock
Incident Facts

Date of incident
Apr 20, 2017

Classification
Incident

Airline
Envoy Air

Flight number
MQ-3725

Destination
Toronto, Canada

Aircraft Registration
N698CB

Aircraft Type
Embraer ERJ-145

ICAO Type Designator
E145

This article is published under license from Avherald.com. © of text by Avherald.com.
Article source

You can read 2 more free articles without a subscription.

Subscribe now and continue reading without any limits!

Are you a subscriber? Login
Subscribe

Read unlimited articles and receive our daily update briefing. Gain better insights into what is happening in commercial aviation safety.

Free newsletter

Want to know more and stay ahead? Get our free weekly newsletter and join 5596 existing subscribers.

By subscribing, you accept our terms and conditions and confirm that you've read our privacy policy.

Send tip

Support AeroInside by sending a small tip amount.

Related articles

Newest articles

Subscribe today

Are you researching aviation incidents? Get access to AeroInside Insights, unlimited read access and receive the daily newsletter.

Pick your plan and subscribe

Partner

Blockaviation logo

A new way to document and demonstrate airworthiness compliance and aircraft value. Find out more.

Virtual Speech logo

ELITE Simulation Solutions is a leading global provider of Flight Simulation Training Devices, IFR training software as well as flight controls and related services. Find out more.

Get updates

Never miss an article from AeroInside. Subscribe to our free weekly newsletter and join 5596 existing subscribers.

By subscribing, you accept our terms and conditions and that you've read our privacy policy.

AeroInside Blog
Popular aircraft
Airbus A320
Boeing 737-800
Boeing 737-800 MAX
Popular airlines
American Airlines
United
Delta
Air Canada
Lufthansa
British Airways